Time;durP1;ratioP1;P1;durP2;ratioP2;P2;SDS_P1;SDS_P2;PMS_P1;PMS_P2;Temp;Humidity;BMP_temperature;BMP_pressure;BME280_temperature;BME280_humidity;BME280_pressure;Samples;Min_cycle;Max_cycle;Signal;HPM_P1;HPM_P2
2023/03/11 00:00:15;;;;;;;16.95;13.38;;;;;;;9.65;76.70;92100.06;5008609;28;20529;-78
2023/03/11 00:02:41;;;;;;;14.32;11.82;;;;;;;9.82;75.64;92103.09;5011570;28;20018;-79
2023/03/11 00:05:08;;;;;;;14.25;11.45;;;;;;;9.51;76.83;92115.69;5013410;28;20022;-79
2023/03/11 00:07:33;;;;;;;9.70;8.38;;;;;;;8.67;79.51;92094.03;5011374;28;20037;-78
2023/03/11 00:09:59;;;;;;;6.78;6.15;;;;;;;8.67;78.47;92083.44;5009342;28;20033;-77
2023/03/11 00:12:24;;;;;;;4.65;3.40;;;;;;;8.77;77.63;92096.19;5012618;28;20073;-79
2023/03/11 00:14:50;;;;;;;6.97;2.92;;;;;;;8.95;76.72;92097.38;5010317;28;20550;-78
2023/03/11 00:17:15;;;;;;;3.00;1.83;;;;;;;9.02;76.20;92084.28;5013053;28;20029;-79
2023/03/11 00:19:41;;;;;;;1.77;1.00;;;;;;;8.85;75.21;92063.44;5011990;28;20128;-77
2023/03/11 00:22:06;;;;;;;3.83;1.60;;;;;;;9.10;75.10;92085.97;4993810;28;20045;-79
2023/03/11 00:24:32;;;;;;;1.90;0.82;;;;;;;9.15;74.30;92088.38;5009934;28;20795;-78
2023/03/11 00:26:58;;;;;;;3.05;0.80;;;;;;;9.07;74.42;92097.28;5011473;28;20046;-79
2023/03/11 00:29:23;;;;;;;2.80;0.90;;;;;;;9.05;74.44;92086.22;5011970;28;20149;-78
2023/03/11 00:31:49;;;;;;;2.40;0.80;;;;;;;9.11;74.26;92071.63;4999094;28;20038;-79
2023/03/11 00:34:14;;;;;;;0.85;0.70;;;;;;;9.18;73.39;92066.50;5012479;28;20085;-78
2023/03/11 00:36:39;;;;;;;2.72;0.73;;;;;;;9.24;73.39;92065.09;5010549;28;20319;-77
2023/03/11 00:39:05;;;;;;;1.92;0.80;;;;;;;9.42;73.03;92082.16;5011497;28;20626;-78
2023/03/11 00:41:34;;;;;;;1.88;0.63;;;;;;;9.34;72.64;92064.53;5006731;28;20017;-77
2023/03/11 00:44:00;;;;;;;1.85;0.80;;;;;;;9.51;72.47;92089.94;5012963;28;20029;-78
2023/03/11 00:46:27;;;;;;;2.92;0.73;;;;;;;9.55;72.55;92074.06;5011011;28;20041;-78
2023/03/11 00:48:52;;;;;;;0.90;0.70;;;;;;;9.28;73.41;92073.91;5010709;28;20120;-78
2023/03/11 00:51:18;;;;;;;4.20;1.42;;;;;;;9.16;73.73;92030.81;5011143;28;20040;-77
2023/03/11 00:53:44;;;;;;;1.73;1.10;;;;;;;9.53;73.40;92039.16;5010814;28;21206;-78
2023/03/11 00:56:12;;;;;;;3.65;1.55;;;;;;;9.69;72.42;92018.63;5013590;28;20017;-78
2023/03/11 00:58:38;;;;;;;1.95;1.15;;;;;;;9.63;71.98;91998.81;5012549;28;20451;-77
2023/03/11 01:01:10;;;;;;;2.42;1.08;;;;;;;9.50;73.25;92021.28;5012795;28;20525;-78
2023/03/11 01:03:36;;;;;;;4.63;1.27;;;;;;;8.64;75.18;91972.84;5011765;28;20042;-79
2023/03/11 01:06:01;;;;;;;3.45;1.40;;;;;;;9.13;74.67;92013.72;5007931;28;20386;-79
2023/03/11 01:08:28;;;;;;;1.30;1.00;;;;;;;8.35;77.04;92030.47;5012474;28;20120;-79
2023/03/11 01:10:54;;;;;;;1.05;0.98;;;;;;;7.85;79.87;92017.06;5012624;28;20368;-78
2023/03/11 01:13:19;;;;;;;3.33;0.93;;;;;;;8.59;78.26;92019.69;5003156;28;20022;-79
2023/03/11 01:15:45;;;;;;;2.08;0.73;;;;;;;8.97;76.03;92026.22;4997927;28;20116;-78
2023/03/11 01:18:10;;;;;;;1.95;0.90;;;;;;;8.75;76.24;92018.91;4998888;28;20036;-77
2023/03/11 01:20:37;;;;;;;1.65;0.95;;;;;;;9.05;75.76;92022.59;5011222;28;20029;-78
2023/03/11 01:23:03;;;;;;;1.52;1.00;;;;;;;9.06;74.66;92004.78;5009234;28;20021;-79
2023/03/11 01:25:29;;;;;;;1.00;0.90;;;;;;;8.42;77.42;91985.59;5007768;28;20053;-79
2023/03/11 01:27:55;;;;;;;1.58;1.05;;;;;;;8.58;76.06;91946.59;5011261;28;20405;-78
2023/03/11 01:30:23;;;;;;;2.25;1.75;;;;;;;9.35;73.89;91993.69;5011135;28;20629;-78
2023/03/11 01:32:49;;;;;;;2.42;1.95;;;;;;;7.96;77.83;91941.38;5007598;28;20052;-77
2023/03/11 01:35:17;;;;;;;3.58;2.22;;;;;;;8.17;78.23;91923.31;5011866;28;20030;-79
2023/03/11 01:37:43;;;;;;;3.22;1.90;;;;;;;8.22;79.37;91951.44;5009202;28;20129;-78
2023/03/11 01:40:17;;;;;;;2.35;2.15;;;;;;;7.87;79.68;91914.31;5007987;28;20033;-79
2023/03/11 01:42:42;;;;;;;4.28;2.53;;;;;;;8.52;77.30;91918.06;5011353;28;20092;-78
2023/03/11 01:45:39;;;;;;;1.90;1.70;;;;;;;8.48;76.68;91901.31;5004868;28;20037;-79
2023/03/11 01:48:06;;;;;;;2.05;1.85;;;;;;;8.70;76.04;91907.88;5005157;28;20050;-79
2023/03/11 01:50:35;;;;;;;2.55;2.00;;;;;;;8.46;75.81;91888.44;5005997;28;20068;-77
2023/03/11 01:53:03;;;;;;;4.15;2.15;;;;;;;8.57;76.18;91942.41;5001380;28;20013;-79
2023/03/11 01:55:30;;;;;;;6.25;2.20;;;;;;;8.66;76.08;91971.38;4993414;28;20042;-77
2023/03/11 01:57:56;;;;;;;1.85;1.52;;;;;;;8.74;76.42;91983.69;4993110;28;20030;-77
2023/03/11 02:00:21;;;;;;;3.67;3.08;;;;;;;8.68;75.94;91997.53;5006691;28;20029;-79
2023/03/11 02:02:56;;;;;;;4.90;3.55;;;;;;;8.80;75.61;92002.75;5010447;28;20037;-77
2023/03/11 02:05:22;;;;;;;4.38;3.97;;;;;;;8.69;75.51;91999.84;4996769;28;20029;-78
2023/03/11 02:07:50;;;;;;;7.47;5.45;;;;;;;8.48;76.99;91989.53;5009801;28;20037;-78
2023/03/11 02:10:16;;;;;;;6.25;4.53;;;;;;;8.79;76.07;91995.91;5008955;28;20117;-80
2023/03/11 02:12:42;;;;;;;4.10;3.47;;;;;;;8.82;74.20;91963.38;5012351;28;20493;-78
2023/03/11 02:15:09;;;;;;;4.53;4.05;;;;;;;9.27;73.57;92006.06;5008108;28;20034;-78
2023/03/11 02:17:36;;;;;;;5.70;4.28;;;;;;;9.10;73.99;91979.88;4997198;28;20033;-79
2023/03/11 02:20:20;;;;;;;5.05;3.95;;;;;;;8.80;74.45;92002.75;5010737;28;20100;-80
2023/03/11 02:22:47;;;;;;;3.72;3.42;;;;;;;8.68;73.84;91989.59;5007617;28;20586;-78
2023/03/11 02:25:21;;;;;;;2.00;1.80;;;;;;;8.76;72.02;92007.16;5010380;28;20050;-78
2023/03/11 02:27:50;;;;;;;1.60;1.48;;;;;;;8.46;69.08;91993.63;4987903;28;20037;-78
2023/03/11 02:30:17;;;;;;;1.88;1.50;;;;;;;8.36;68.94;92010.81;5008981;28;20105;-77
2023/03/11 02:32:47;;;;;;;2.25;1.00;;;;;;;8.47;68.67;92006.53;5008480;28;20080;-78
2023/03/11 02:35:13;;;;;;;1.25;1.02;;;;;;;8.44;66.96;92006.44;5010782;28;20037;-78
2023/03/11 02:37:45;;;;;;;5.40;2.20;;;;;;;8.41;68.70;92002.59;5009676;28;20486;-78
2023/03/11 02:40:39;;;;;;;1.77;1.40;;;;;;;8.49;66.71;91999.00;5012182;28;20112;-78
2023/03/11 02:43:12;;;;;;;1.38;1.17;;;;;;;8.43;67.54;91989.78;4979754;28;20492;-78
2023/03/11 02:45:39;;;;;;;3.17;2.40;;;;;;;8.56;66.98;92007.09;5009658;28;20464;-78
2023/03/11 02:48:06;;;;;;;2.63;1.23;;;;;;;8.47;67.73;92014.47;5007647;28;20963;-77
2023/03/11 02:50:35;;;;;;;2.25;1.48;;;;;;;8.41;67.17;92021.13;5009416;28;20036;-78
2023/03/11 02:53:02;;;;;;;1.42;1.08;;;;;;;8.45;67.90;92024.66;4991712;28;20021;-78
2023/03/11 02:55:27;;;;;;;0.80;0.80;;;;;;;8.28;67.27;92009.09;5008988;28;20133;-78
2023/03/11 02:57:52;;;;;;;1.98;0.60;;;;;;;8.28;67.27;91985.25;5010775;28;20827;-77
2023/03/11 03:00:18;;;;;;;0.77;0.70;;;;;;;8.33;65.53;91995.59;5008914;28;20056;-77
2023/03/11 03:02:44;;;;;;;0.95;0.82;;;;;;;8.02;67.32;91985.00;5009909;28;20096;-77
2023/03/11 03:05:11;;;;;;;2.28;1.60;;;;;;;8.32;67.03;92009.94;5008375;28;20120;-78
2023/03/11 03:07:37;;;;;;;1.38;0.65;;;;;;;8.42;66.80;92004.13;5008899;28;20629;-78
2023/03/11 03:10:05;;;;;;;0.55;0.55;;;;;;;8.37;64.04;91985.84;5009121;28;20337;-77
2023/03/11 03:12:30;;;;;;;0.82;0.70;;;;;;;8.40;64.94;92014.31;5009927;28;20702;-77
2023/03/11 03:14:57;;;;;;;0.68;0.50;;;;;;;8.23;63.51;91982.88;5009418;28;20132;-79
2023/03/11 03:17:23;;;;;;;1.65;0.68;;;;;;;8.24;64.07;92002.94;5011731;28;20736;-80
2023/03/11 03:19:48;;;;;;;0.50;0.50;;;;;;;8.26;64.01;92010.56;5007763;28;20041;-77
2023/03/11 03:22:14;;;;;;;2.03;0.80;;;;;;;8.14;64.18;92008.75;5008434;28;20061;-78
2023/03/11 03:24:40;;;;;;;0.70;0.70;;;;;;;8.18;64.83;92006.19;5007326;28;20716;-77
2023/03/11 03:27:05;;;;;;;0.70;0.70;;;;;;;8.08;63.28;91975.69;5010602;28;20515;-77
2023/03/11 03:29:30;;;;;;;0.50;0.50;;;;;;;8.32;64.15;92011.81;5006486;28;20033;-78
2023/03/11 03:31:56;;;;;;;0.85;0.60;;;;;;;8.29;61.55;92010.63;4992195;28;20082;-77
2023/03/11 03:34:21;;;;;;;0.70;0.70;;;;;;;8.24;61.49;92016.19;5000787;28;20512;-78
2023/03/11 03:36:46;;;;;;;0.60;0.60;;;;;;;8.29;62.27;92010.63;5008872;28;20053;-79
2023/03/11 03:39:12;;;;;;;0.80;0.80;;;;;;;8.33;62.33;91992.16;5011167;28;20046;-79
2023/03/11 03:41:37;;;;;;;1.35;0.60;;;;;;;8.50;61.07;91995.25;5012735;28;20396;-78
2023/03/11 03:44:03;;;;;;;0.50;0.50;;;;;;;8.56;62.02;91999.16;5012038;28;20029;-77
2023/03/11 03:46:28;;;;;;;0.60;0.60;;;;;;;8.66;60.41;92005.06;4996585;28;20025;-79
2023/03/11 03:48:53;;;;;;;0.50;0.50;;;;;;;8.33;60.64;91957.75;5011833;28;20040;-77
2023/03/11 03:51:19;;;;;;;1.67;0.63;;;;;;;8.55;61.19;91983.63;5013645;28;20448;-78
2023/03/11 03:53:45;;;;;;;0.60;0.60;;;;;;;8.76;59.76;91993.91;4999409;28;20037;-77
2023/03/11 03:56:13;;;;;;;0.50;0.50;;;;;;;8.65;58.55;92000.88;5013864;28;20021;-78
2023/03/11 03:58:38;;;;;;;0.50;0.50;;;;;;;8.52;59.18;92008.13;4998534;28;20949;-78
2023/03/11 04:01:05;;;;;;;0.60;0.60;;;;;;;8.52;60.32;92003.63;5015340;28;20034;-79
2023/03/11 04:03:31;;;;;;;0.70;0.70;;;;;;;8.44;61.17;92001.91;5011597;28;20100;-79
2023/03/11 04:06:06;;;;;;;1.65;0.55;;;;;;;8.50;60.32;91994.50;5013108;28;20046;-78
2023/03/11 04:08:32;;;;;;;0.82;0.65;;;;;;;8.52;59.86;91977.13;5009491;28;20034;-77
2023/03/11 04:10:57;;;;;;;0.60;0.52;;;;;;;8.64;59.17;92001.97;5012313;28;20614;-77
2023/03/11 04:13:23;;;;;;;0.60;0.60;;;;;;;8.66;58.82;91994.47;5013258;28;20030;-78
2023/03/11 04:15:48;;;;;;;0.40;0.40;;;;;;;8.84;59.06;91995.63;5012261;28;20557;-78
2023/03/11 04:18:14;;;;;;;0.43;0.43;;;;;;;8.76;58.32;91981.44;5014161;28;20041;-79
2023/03/11 04:20:39;;;;;;;0.65;0.60;;;;;;;8.77;57.37;91961.00;5014595;28;20029;-78
2023/03/11 04:23:05;;;;;;;0.50;0.50;;;;;;;8.86;57.34;91988.09;5010413;28;20508;-78
2023/03/11 04:25:30;;;;;;;0.60;0.60;;;;;;;8.67;57.85;91977.44;5014591;28;20510;-77
2023/03/11 04:27:55;;;;;;;0.60;0.60;;;;;;;8.73;57.61;91992.75;5011023;28;20034;-79
2023/03/11 04:30:21;;;;;;;1.83;0.57;;;;;;;8.55;57.72;91975.69;5011582;28;20037;-77
2023/03/11 04:32:46;;;;;;;0.63;0.63;;;;;;;8.37;57.82;91972.59;5012868;28;20024;-79
2023/03/11 04:35:12;;;;;;;0.60;0.60;;;;;;;8.27;59.19;91959.09;5004416;28;20033;-77
2023/03/11 04:37:37;;;;;;;0.70;0.70;;;;;;;8.45;58.04;91995.50;5002624;28;20640;-77
2023/03/11 04:40:04;;;;;;;0.75;0.75;;;;;;;8.56;58.81;91999.16;4997105;28;20033;-78
2023/03/11 04:42:30;;;;;;;0.90;0.60;;;;;;;8.44;57.82;91972.78;5011830;28;20394;-79
2023/03/11 04:44:55;;;;;;;0.60;0.60;;;;;;;8.42;57.95;92009.44;4992333;28;20033;-79
2023/03/11 04:47:21;;;;;;;3.25;1.92;;;;;;;8.23;58.43;91990.03;5011839;28;21089;-80
2023/03/11 04:49:46;;;;;;;1.58;1.20;;;;;;;8.43;58.47;92016.28;5010345;28;20029;-78
2023/03/11 04:52:11;;;;;;;0.90;0.68;;;;;;;8.37;58.18;92016.84;5010700;28;20116;-78
2023/03/11 04:54:37;;;;;;;1.35;1.13;;;;;;;8.40;59.15;91998.44;5012463;28;20263;-78
2023/03/11 04:57:02;;;;;;;1.27;1.00;;;;;;;8.46;57.94;91983.78;5010886;28;20509;-77
2023/03/11 04:59:28;;;;;;;1.90;1.02;;;;;;;8.74;57.36;92020.78;5012968;28;20061;-78
2023/03/11 05:01:53;;;;;;;2.20;1.17;;;;;;;8.71;57.05;92024.09;5010317;28;20040;-77
2023/03/11 05:04:19;;;;;;;0.60;0.60;;;;;;;8.35;57.77;92003.97;5011517;28;20034;-77
2023/03/11 05:06:44;;;;;;;0.60;0.60;;;;;;;8.56;57.86;92032.84;5009910;28;20095;-78
2023/03/11 05:09:09;;;;;;;0.60;0.60;;;;;;;8.62;57.61;92028.03;5009770;28;20037;-79
2023/03/11 05:11:35;;;;;;;1.08;0.52;;;;;;;8.63;57.19;92033.00;5009493;28;20501;-77
2023/03/11 05:14:00;;;;;;;0.95;0.93;;;;;;;8.71;57.31;92041.88;5012504;28;20128;-78
2023/03/11 05:16:25;;;;;;;0.60;0.60;;;;;;;8.72;56.34;92049.50;4992150;28;20044;-79
2023/03/11 05:18:51;;;;;;;1.38;1.27;;;;;;;8.48;56.85;92017.88;5009671;28;20041;-77
2023/03/11 05:21:16;;;;;;;0.60;0.60;;;;;;;8.70;56.16;92061.56;5010891;28;20067;-77
2023/03/11 05:23:41;;;;;;;1.00;0.80;;;;;;;8.62;56.62;92055.31;5009193;28;20068;-80
2023/03/11 05:26:07;;;;;;;9.35;4.80;;;;;;;8.68;57.01;92067.19;5009800;28;20029;-77
2023/03/11 05:28:32;;;;;;;5.50;3.08;;;;;;;8.63;57.61;92078.06;5012213;28;20046;-77
2023/03/11 05:30:58;;;;;;;0.80;0.80;;;;;;;8.66;56.83;92066.75;5010716;28;20112;-77
2023/03/11 05:33:23;;;;;;;1.73;0.90;;;;;;;8.53;56.85;92039.59;5010607;28;20073;-78
2023/03/11 05:35:50;;;;;;;3.15;2.33;;;;;;;8.73;56.61;92053.69;5010706;28;20026;-78
2023/03/11 05:38:16;;;;;;;1.55;1.45;;;;;;;8.84;55.95;92062.66;5012592;28;20074;-78
2023/03/11 05:40:41;;;;;;;0.80;0.80;;;;;;;8.85;56.23;92072.13;5010162;28;20449;-79
2023/03/11 05:43:06;;;;;;;1.73;1.45;;;;;;;8.93;56.69;92067.78;5013540;28;20493;-78
2023/03/11 05:45:32;;;;;;;1.23;1.13;;;;;;;9.17;57.17;92080.84;5011148;28;20652;-76
2023/03/11 05:47:57;;;;;;;2.08;1.88;;;;;;;9.26;57.24;92078.00;5010759;28;20041;-79
2023/03/11 05:50:22;;;;;;;2.72;2.38;;;;;;;8.96;58.18;92080.34;5011644;28;20066;-77
2023/03/11 05:52:48;;;;;;;2.17;1.23;;;;;;;8.92;58.57;92095.41;5009452;28;20387;-77
2023/03/11 05:55:13;;;;;;;0.68;0.68;;;;;;;8.48;59.76;92049.69;5009217;28;20418;-77
2023/03/11 05:57:39;;;;;;;0.50;0.50;;;;;;;8.55;59.44;92068.41;5010992;28;20037;-77
2023/03/11 06:00:10;;;;;;;1.42;0.95;;;;;;;8.73;59.81;92103.28;5004460;28;20843;-79
2023/03/11 06:02:37;;;;;;;1.38;1.00;;;;;;;8.71;61.16;92110.78;5009384;28;20053;-77
2023/03/11 06:05:03;;;;;;;1.00;1.00;;;;;;;8.63;61.28;92103.78;5010466;28;20750;-77
2023/03/11 06:07:28;;;;;;;0.68;0.68;;;;;;;8.55;61.65;92079.00;5012323;28;20044;-77
2023/03/11 06:09:54;;;;;;;0.60;0.60;;;;;;;8.76;61.54;92107.88;5008584;28;20038;-79
2023/03/11 06:12:19;;;;;;;1.05;0.68;;;;;;;8.67;61.44;92118.66;4988745;28;20038;-76
2023/03/11 06:14:44;;;;;;;0.50;0.50;;;;;;;8.39;62.08;92094.88;5010127;28;20029;-77
2023/03/11 06:17:10;;;;;;;2.30;0.60;;;;;;;8.41;62.72;92099.84;5008753;28;20028;-77
2023/03/11 06:19:35;;;;;;;1.98;0.95;;;;;;;8.13;62.98;92063.56;5008897;28;20030;-77
2023/03/11 06:22:01;;;;;;;0.70;0.70;;;;;;;8.07;63.84;92085.34;4997498;28;20037;-77
2023/03/11 06:24:26;;;;;;;1.27;0.80;;;;;;;8.09;63.07;92085.78;4990621;28;20046;-77
2023/03/11 06:26:52;;;;;;;0.73;0.73;;;;;;;8.25;63.17;92110.41;5011194;28;20033;-78
2023/03/11 06:29:18;;;;;;;0.75;0.60;;;;;;;8.25;62.25;92101.69;5008705;28;20212;-77
2023/03/11 06:31:43;;;;;;;0.68;0.57;;;;;;;8.14;61.74;92090.81;5009941;28;20045;-77
2023/03/11 06:34:10;;;;;;;0.60;0.60;;;;;;;8.16;60.60;92078.03;5008653;28;20445;-78
2023/03/11 06:36:36;;;;;;;1.65;0.75;;;;;;;8.24;60.85;92086.91;5010409;28;20872;-77
2023/03/11 06:39:03;;;;;;;0.70;0.70;;;;;;;8.45;60.78;92114.72;5008732;28;20041;-79
2023/03/11 06:41:28;;;;;;;2.28;0.93;;;;;;;8.35;59.84;92112.56;5006728;28;20493;-78
2023/03/11 06:43:53;;;;;;;0.77;0.60;;;;;;;8.22;59.92;92100.47;5009556;28;20140;-78
2023/03/11 06:46:21;;;;;;;0.98;0.70;;;;;;;8.44;60.03;92120.34;5009642;28;20030;-78
2023/03/11 06:48:50;;;;;;;0.50;0.50;;;;;;;8.39;60.33;92121.38;5005368;28;20042;-77
2023/03/11 06:51:16;;;;;;;0.52;0.52;;;;;;;8.15;60.19;92109.03;5006530;28;20556;-78
2023/03/11 06:53:42;;;;;;;0.50;0.50;;;;;;;8.28;60.54;92133.56;5008928;28;20463;-78
2023/03/11 06:56:10;;;;;;;0.60;0.60;;;;;;;8.30;59.26;92127.94;5008982;28;20022;-78
2023/03/11 06:58:37;;;;;;;0.70;0.70;;;;;;;8.34;59.55;92134.09;5008320;28;20041;-79
2023/03/11 07:01:10;;;;;;;0.57;0.57;;;;;;;8.16;60.68;92115.09;5010173;28;20112;-77
2023/03/11 07:03:36;;;;;;;0.50;0.50;;;;;;;8.36;60.25;92130.00;4989903;28;20402;-78
2023/03/11 07:06:01;;;;;;;1.50;0.60;;;;;;;8.55;60.60;92130.13;5010518;28;20038;-78
2023/03/11 07:08:28;;;;;;;0.50;0.50;;;;;;;8.69;60.04;92136.88;5009439;28;20026;-78
2023/03/11 07:11:02;;;;;;;0.60;0.60;;;;;;;8.81;59.44;92126.19;5009584;28;20372;-77
2023/03/11 07:13:28;;;;;;;1.00;0.70;;;;;;;8.81;58.95;92102.31;5011555;28;20036;-77
2023/03/11 07:16:00;;;;;;;0.95;0.60;;;;;;;9.00;58.60;92120.97;5005321;28;20037;-76
2023/03/11 07:18:25;;;;;;;1.52;1.08;;;;;;;8.86;57.84;92080.84;5000210;28;21577;-79
2023/03/11 07:20:51;;;;;;;0.80;0.80;;;;;;;9.00;58.99;92097.09;5013704;28;20048;-78
2023/03/11 07:23:16;;;;;;;0.80;0.80;;;;;;;9.07;56.44;92099.91;5010023;28;20729;-77
2023/03/11 07:25:46;;;;;;;1.33;0.70;;;;;;;8.95;56.07;92100.03;5012301;28;20214;-79
2023/03/11 07:28:11;;;;;;;0.73;0.65;;;;;;;9.07;55.96;92091.97;4993857;28;20044;-80
2023/03/11 07:30:40;;;;;;;1.05;0.73;;;;;;;9.20;55.00;92090.00;4992695;28;20041;-80
2023/03/11 07:33:06;;;;;;;1.85;0.93;;;;;;;9.44;54.68;92090.53;5013181;28;20386;-78
2023/03/11 07:35:31;;;;;;;1.48;1.00;;;;;;;9.60;56.69;92105.66;5013015;28;20025;-78
2023/03/11 07:37:56;;;;;;;1.02;1.02;;;;;;;9.55;52.88;92087.34;4993804;28;20025;-77
2023/03/11 07:40:22;;;;;;;0.80;0.80;;;;;;;9.48;53.76;92085.31;5013927;28;20029;-77
2023/03/11 07:42:48;;;;;;;1.25;0.82;;;;;;;9.51;55.19;92075.88;5010941;28;20454;-78
2023/03/11 07:45:13;;;;;;;0.70;0.70;;;;;;;9.33;54.38;92047.13;5014088;28;20651;-78
2023/03/11 07:47:39;;;;;;;0.57;0.57;;;;;;;9.59;54.48;92051.03;5011785;28;20029;-78
2023/03/11 07:50:04;;;;;;;0.70;0.70;;;;;;;9.61;54.22;92056.75;5012760;28;20112;-77
2023/03/11 07:52:31;;;;;;;1.85;0.70;;;;;;;9.48;54.87;92064.09;5011256;28;20032;-78
2023/03/11 07:54:57;;;;;;;1.13;1.02;;;;;;;9.32;55.05;92034.97;5011062;28;20405;-78
2023/03/11 07:57:22;;;;;;;0.80;0.60;;;;;;;9.50;54.51;92069.03;5011945;28;20646;-79
2023/03/11 07:59:47;;;;;;;0.77;0.75;;;;;;;9.33;54.85;92028.53;5012517;28;20029;-78
2023/03/11 08:02:13;;;;;;;1.00;0.90;;;;;;;9.52;53.11;92048.25;5013821;28;20018;-77
2023/03/11 08:04:38;;;;;;;0.70;0.68;;;;;;;9.43;54.18;92046.56;5009881;28;20686;-78
2023/03/11 08:07:04;;;;;;;1.23;0.80;;;;;;;9.42;52.48;92044.25;5011508;28;20489;-77
2023/03/11 08:09:29;;;;;;;1.98;0.95;;;;;;;9.42;51.10;92039.72;5012213;28;20040;-77
2023/03/11 08:11:55;;;;;;;1.65;1.00;;;;;;;9.36;51.15;92029.72;5011890;28;20038;-77
2023/03/11 08:14:20;;;;;;;4.95;0.90;;;;;;;9.49;50.19;92019.75;5011888;28;20025;-77
2023/03/11 08:16:45;;;;;;;0.90;0.90;;;;;;;9.45;50.35;91978.00;4992678;28;20034;-77
2023/03/11 08:19:12;;;;;;;0.85;0.70;;;;;;;9.78;50.80;92019.19;5011294;28;20480;-77
2023/03/11 08:21:37;;;;;;;4.60;1.25;;;;;;;9.85;49.26;92028.06;5011094;28;20034;-78
2023/03/11 08:24:03;;;;;;;0.75;0.70;;;;;;;9.85;49.60;91998.84;5011672;28;20445;-78
2023/03/11 08:26:30;;;;;;;1.33;1.08;;;;;;;10.12;49.07;92001.59;4998921;28;20393;-78
2023/03/11 08:28:56;;;;;;;0.90;0.90;;;;;;;10.19;49.75;92005.13;5011722;28;20901;-78
2023/03/11 08:31:27;;;;;;;1.42;1.00;;;;;;;10.25;49.61;91993.09;5008888;28;20037;-78
2023/03/11 08:33:55;;;;;;;1.08;0.95;;;;;;;10.24;49.42;91994.22;5011991;28;20252;-79
2023/03/11 08:36:21;;;;;;;1.63;1.20;;;;;;;9.94;49.75;91931.47;5012203;28;20033;-78
2023/03/11 08:38:46;;;;;;;1.17;1.08;;;;;;;10.40;50.68;91990.72;5009021;28;20031;-78
2023/03/11 08:41:12;;;;;;;2.42;1.35;;;;;;;10.30;49.39;91987.50;5004258;28;20028;-79
2023/03/11 08:43:38;;;;;;;2.70;1.30;;;;;;;10.41;50.23;91979.72;5015994;28;20572;-77
2023/03/11 08:46:07;;;;;;;1.35;1.10;;;;;;;10.38;48.43;91966.38;5011685;28;20438;-77
2023/03/11 08:48:35;;;;;;;1.73;1.00;;;;;;;10.51;49.19;91978.38;5011555;28;20508;-79
2023/03/11 08:51:01;;;;;;;2.25;1.33;;;;;;;10.53;48.18;91962.81;5013519;28;20061;-77
2023/03/11 08:53:27;;;;;;;1.42;1.10;;;;;;;10.77;47.47;91974.94;5012161;28;20053;-77
2023/03/11 08:55:52;;;;;;;2.15;0.90;;;;;;;10.63;47.38;91948.91;5011773;28;20167;-77
2023/03/11 08:58:18;;;;;;;1.85;1.10;;;;;;;10.78;47.69;91950.66;5010962;28;20245;-79
2023/03/11 09:00:44;;;;;;;1.02;0.93;;;;;;;10.80;47.25;91945.75;5010477;28;20033;-78
2023/03/11 09:03:12;;;;;;;2.13;1.02;;;;;;;10.98;47.37;91972.59;5011863;28;20155;-78
2023/03/11 09:05:37;;;;;;;1.23;1.00;;;;;;;10.86;46.97;91962.91;4994591;28;20034;-77
2023/03/11 09:08:03;;;;;;;1.10;1.00;;;;;;;10.96;47.78;91949.00;5011952;28;20022;-77
2023/03/11 09:10:28;;;;;;;2.25;1.00;;;;;;;10.95;47.77;91962.69;5011742;28;20061;-78
2023/03/11 09:12:54;;;;;;;1.38;0.80;;;;;;;10.76;47.68;91950.25;4998664;28;20021;-78
2023/03/11 09:15:19;;;;;;;3.80;0.80;;;;;;;10.92;48.29;91977.44;5012419;28;20033;-78
2023/03/11 09:17:45;;;;;;;3.55;1.75;;;;;;;10.77;49.21;91981.03;5007511;28;20061;-78
2023/03/11 09:20:12;;;;;;;1.73;1.40;;;;;;;10.74;49.69;91965.81;5013180;28;20017;-77
2023/03/11 09:22:38;;;;;;;2.22;1.30;;;;;;;10.82;49.86;91990.59;5009208;28;20069;-77
2023/03/11 09:25:03;;;;;;;4.15;1.42;;;;;;;10.75;51.51;91970.00;5011996;28;20838;-78
2023/03/11 09:27:29;;;;;;;4.57;1.73;;;;;;;10.54;51.52;91937.78;5010818;28;20041;-79
2023/03/11 09:29:54;;;;;;;3.78;2.83;;;;;;;10.50;51.43;91919.13;4984746;28;20041;-78
2023/03/11 09:32:20;;;;;;;2.75;1.90;;;;;;;10.99;51.13;91960.84;5009585;28;20032;-78
2023/03/11 09:34:45;;;;;;;2.95;2.20;;;;;;;10.73;49.73;91932.34;5008229;28;20037;-79
2023/03/11 09:37:11;;;;;;;3.35;2.10;;;;;;;10.82;50.13;91922.22;5013198;28;20037;-77
2023/03/11 09:39:36;;;;;;;3.75;2.33;;;;;;;10.91;48.88;91925.38;5010142;28;20851;-78
2023/03/11 09:42:46;;;;;;;1.75;1.40;;;;;;;11.08;48.06;91940.81;5011963;28;20172;-79
2023/03/11 09:45:30;;;;;;;3.67;1.60;;;;;;;11.00;48.16;91917.91;5003543;28;20068;-77
2023/03/11 09:48:15;;;;;;;3.05;1.83;;;;;;;11.04;47.41;91937.34;5011247;28;20558;-77
2023/03/11 09:50:52;;;;;;;5.05;2.70;;;;;;;11.11;47.24;91945.41;5010777;28;20517;-78
2023/03/11 09:53:18;;;;;;;1.20;1.00;;;;;;;10.99;47.79;91956.28;5009737;28;20440;-77
2023/03/11 09:55:48;;;;;;;2.22;1.35;;;;;;;10.95;48.44;91952.81;4998186;28;20042;-77
2023/03/11 09:58:32;;;;;;;2.47;1.60;;;;;;;11.05;48.72;91951.41;5010106;28;20037;-78
2023/03/11 10:00:57;;;;;;;3.88;1.23;;;;;;;11.06;47.35;91929.75;4996846;28;20044;-79
2023/03/11 10:03:33;;;;;;;11.40;1.85;;;;;;;11.16;48.23;91955.72;5010918;28;20045;-79
2023/03/11 10:06:12;;;;;;;3.08;1.73;;;;;;;11.26;48.46;91961.53;4989056;28;20112;-79
2023/03/11 10:08:45;;;;;;;1.77;1.15;;;;;;;11.26;48.60;91961.53;5009308;28;20030;-77
2023/03/11 10:11:44;;;;;;;4.90;2.00;;;;;;;11.31;48.18;91958.56;5010973;28;20032;-78
2023/03/11 10:14:17;;;;;;;4.72;3.45;;;;;;;11.40;47.09;91967.03;5009334;28;20921;-78
2023/03/11 10:17:04;;;;;;;3.70;2.40;;;;;;;11.40;46.95;91975.03;5009986;28;20045;-80
2023/03/11 10:19:48;;;;;;;41.05;26.73;;;;;;;11.54;46.17;91968.00;5010409;28;20066;-79
2023/03/11 10:22:25;;;;;;;4.22;2.28;;;;;;;11.72;45.89;91967.47;5007474;28;20521;-78
2023/03/11 10:25:04;;;;;;;10.25;9.05;;;;;;;11.76;45.66;91968.25;5009539;28;20533;-79
2023/03/11 10:27:39;;;;;;;15.13;10.95;;;;;;;11.72;45.36;91962.13;4992042;28;20103;-79
2023/03/11 10:30:28;;;;;;;5.13;3.15;;;;;;;11.71;44.19;91974.69;5008539;28;20047;-78
2023/03/11 10:33:02;;;;;;;3.40;3.13;;;;;;;11.88;44.71;91971.41;5010800;28;20095;-76
2023/03/11 10:35:39;;;;;;;1.20;1.10;;;;;;;11.76;44.82;91953.06;5011350;28;20401;-77
2023/03/11 10:38:18;;;;;;;64.25;37.22;;;;;;;12.02;44.18;91965.50;5007398;28;21152;-79
2023/03/11 10:40:46;;;;;;;35.88;24.52;;;;;;;11.98;44.13;91959.34;5002797;28;20041;-78
2023/03/11 10:43:40;;;;;;;2.17;1.55;;;;;;;11.68;43.91;91967.44;5010832;28;20041;-78
2023/03/11 10:46:24;;;;;;;82.43;41.13;;;;;;;11.57;43.73;91963.88;5006618;28;20107;-78
2023/03/11 10:48:50;;;;;;;6.32;4.20;;;;;;;11.59;44.66;91961.59;4990844;28;20033;-77
2023/03/11 10:51:25;;;;;;;18.48;11.13;;;;;;;11.37;46.40;91979.19;5010496;28;20511;-77
2023/03/11 10:53:58;;;;;;;2.42;1.63;;;;;;;11.09;48.54;91990.25;5009189;28;20503;-77
2023/03/11 10:56:34;;;;;;;1.30;1.20;;;;;;;10.96;50.87;92006.75;5008734;28;20128;-77
2023/03/11 10:59:01;;;;;;;1.77;1.38;;;;;;;10.68;53.66;91969.88;5009072;28;20037;-78
2023/03/11 11:01:27;;;;;;;16.42;2.50;;;;;;;10.90;55.47;91993.00;5008925;28;20037;-78
2023/03/11 11:03:55;;;;;;;3.45;2.28;;;;;;;10.96;57.22;91959.66;5005981;28;20046;-78
2023/03/11 11:06:29;;;;;;;2.25;1.75;;;;;;;11.40;53.94;91985.66;5009643;28;20042;-78
2023/03/11 11:09:06;;;;;;;2.70;2.35;;;;;;;11.33;54.24;91970.41;4995368;28;20037;-77
2023/03/11 11:11:34;;;;;;;3.03;1.90;;;;;;;11.57;54.73;91985.16;5008606;28;20036;-79
2023/03/11 11:14:00;;;;;;;5.57;2.20;;;;;;;11.51;53.97;91962.66;5008770;28;20034;-77
2023/03/11 11:16:27;;;;;;;15.60;11.20;;;;;;;11.79;54.58;91978.16;5006452;28;20451;-78
2023/03/11 11:19:02;;;;;;;64.18;50.33;;;;;;;11.88;53.24;91965.34;5008228;28;20030;-78
2023/03/11 11:21:38;;;;;;;39.72;27.10;;;;;;;11.82;51.87;91956.91;5008304;28;20034;-78
2023/03/11 11:24:16;;;;;;;20.55;17.63;;;;;;;12.01;52.20;91975.38;4997532;28;20069;-77
2023/03/11 11:26:41;;;;;;;8.88;6.22;;;;;;;11.96;52.59;91974.94;5007699;28;20030;-78
2023/03/11 11:29:10;;;;;;;10.93;9.70;;;;;;;12.02;53.86;91968.16;5008940;28;20516;-78
2023/03/11 11:31:41;;;;;;;3.47;1.83;;;;;;;11.91;52.82;91959.28;4994053;28;20056;-77
2023/03/11 11:34:25;;;;;;;7.63;6.70;;;;;;;12.05;51.96;91948.75;5009417;28;20096;-78
2023/03/11 11:36:51;;;;;;;5.60;2.45;;;;;;;12.00;50.95;91911.81;5006501;28;20030;-77
2023/03/11 11:39:19;;;;;;;4.15;1.98;;;;;;;12.06;50.36;91917.56;5006896;28;20410;-78
2023/03/11 11:41:47;;;;;;;7.03;2.97;;;;;;;11.85;48.18;91892.25;5009193;28;20116;-77